Time;durP1;ratioP1;P1;durP2;ratioP2;P2;SDS_P1;SDS_P2;PMS_P1;PMS_P2;Temp;Humidity;BMP_temperature;BMP_pressure;BME280_temperature;BME280_humidity;BME280_pressure;Samples;Min_cycle;Max_cycle;Signal;HPM_P1;HPM_P2
2022/09/26 00:01:17;;;;;;;;;1.00;1.00;;;;;15.89;50.80;101017.06;5120393;27;45227;-65
2022/09/26 00:04:05;;;;;;;;;1.00;1.00;;;;;16.01;51.04;101036.28;5119881;27;46205;-51
2022/09/26 00:06:30;;;;;;;;;0.67;0.67;;;;;15.92;51.03;101023.91;5120000;27;45378;-53
2022/09/26 00:08:56;;;;;;;;;2.00;0.00;;;;;15.98;50.89;101028.59;5120168;27;45556;-43
2022/09/26 00:11:24;;;;;;;;;1.00;1.00;;;;;15.97;50.63;101029.59;5120425;27;45403;-51
2022/09/26 00:13:57;;;;;;;;;1.00;1.00;;;;;15.96;50.95;101027.91;5119493;27;47112;-46
2022/09/26 00:16:24;;;;;;;;;1.33;1.00;;;;;15.94;50.93;101021.91;5119714;27;45546;-60
2022/09/26 00:18:51;;;;;;;;;2.00;2.00;;;;;15.88;51.30;101012.69;5119897;27;45219;-44
2022/09/26 00:21:17;;;;;;;;;0.00;0.00;;;;;15.94;51.38;101020.06;5119745;27;45562;-64
2022/09/26 00:23:43;;;;;;;;;1.67;1.67;;;;;15.90;50.99;101018.72;5119237;27;46503;-55
2022/09/26 00:26:09;;;;;;;;;2.67;1.00;;;;;15.89;51.33;101006.34;5119793;27;45484;-63
2022/09/26 00:28:35;;;;;;;;;1.33;1.00;;;;;15.92;51.75;101008.63;5119724;27;45411;-47
2022/09/26 00:31:05;;;;;;;;;1.00;1.00;;;;;15.89;51.75;100998.28;5119862;27;45318;-48
2022/09/26 00:33:31;;;;;;;;;4.33;1.67;;;;;15.89;52.00;100998.28;5119185;27;45558;-61
2022/09/26 00:35:56;;;;;;;;;1.67;1.67;;;;;15.85;51.57;100983.53;5100691;27;45448;-60
2022/09/26 00:38:26;;;;;;;;;1.00;1.00;;;;;15.85;51.68;100993.44;5119798;27;45434;-64
2022/09/26 00:40:52;;;;;;;;;2.00;1.33;;;;;15.83;51.81;100996.28;5119427;27;45477;-42
2022/09/26 00:43:36;;;;;;;;;3.00;1.00;;;;;15.82;51.56;100991.94;5119151;27;46276;-42
2022/09/26 00:46:17;;;;;;;;;1.00;0.33;;;;;15.80;51.83;100980.56;5121126;27;45456;-53
2022/09/26 00:48:47;;;;;;;;;1.67;1.67;;;;;15.80;51.82;100979.69;5125432;27;45361;-58
2022/09/26 00:51:13;;;;;;;;;1.00;1.00;;;;;15.78;51.89;100984.41;5123122;27;45446;-44
2022/09/26 00:53:45;;;;;;;;;2.67;1.00;;;;;15.74;51.72;100978.56;5122702;27;46371;-48
2022/09/26 00:56:16;;;;;;;;;2.00;2.00;;;;;15.73;51.81;100976.06;5123921;27;45409;-42
2022/09/26 00:58:46;;;;;;;;;1.00;1.00;;;;;15.71;51.83;100974.38;5121870;27;45354;-45
2022/09/26 01:01:13;;;;;;;;;1.33;1.33;;;;;15.69;51.60;100979.09;5120432;27;45330;-47
2022/09/26 01:03:42;;;;;;;;;1.33;1.00;;;;;15.61;51.74;100968.34;5118854;27;46510;-42
2022/09/26 01:06:07;;;;;;;;;1.33;1.00;;;;;15.66;51.99;100965.19;5118872;27;45385;-43
2022/09/26 01:08:40;;;;;;;;;1.00;1.00;;;;;15.63;51.90;100962.81;5119132;27;45353;-43
2022/09/26 01:11:06;;;;;;;;;1.00;1.00;;;;;15.62;52.08;100956.63;5119267;27;45431;-59
2022/09/26 01:13:35;;;;;;;;;3.67;0.67;;;;;15.61;52.66;100962.16;5119026;27;45590;-49
2022/09/26 01:16:02;;;;;;;;;2.33;1.00;;;;;15.58;52.24;100963.34;5119124;27;45476;-56
2022/09/26 01:18:27;;;;;;;;;2.00;2.00;;;;;15.58;52.09;100955.28;5118852;27;45311;-52
2022/09/26 01:21:32;;;;;;;;;1.00;0.00;;;;;15.55;51.83;100961.03;5118962;27;45482;-55
2022/09/26 01:24:16;;;;;;;;;0.33;0.33;;;;;15.56;51.91;100964.53;5118762;27;45274;-44
2022/09/26 01:27:05;;;;;;;;;2.00;1.00;;;;;15.55;51.93;100968.22;5118717;27;45465;-43
2022/09/26 01:29:53;;;;;;;;;1.33;1.33;;;;;15.53;52.56;100967.56;5118732;27;45366;-55
2022/09/26 01:32:47;;;;;;;;;2.00;1.67;;;;;15.50;52.36;100959.84;5118765;27;45442;-43
2022/09/26 01:35:34;;;;;;;;;1.00;1.00;;;;;15.47;51.84;100956.53;5118716;27;46315;-55
2022/09/26 01:38:11;;;;;;;;;1.00;1.00;;;;;15.46;52.69;100960.22;5118641;27;45342;-68
2022/09/26 01:40:55;;;;;;;;;3.00;1.00;;;;;15.45;52.58;100955.00;5118625;27;45326;-41
2022/09/26 01:44:03;;;;;;;;;7.00;2.67;;;;;15.41;52.35;100949.16;5118695;27;45536;-46
2022/09/26 01:46:38;;;;;;;;;2.00;2.00;;;;;15.39;52.37;100947.69;5090301;27;46236;-48
2022/09/26 01:49:13;;;;;;;;;2.33;1.67;;;;;15.36;52.30;100943.50;5118226;27;45260;-42
2022/09/26 01:51:46;;;;;;;;;1.00;1.00;;;;;15.32;52.42;100936.81;5118377;27;45264;-53
2022/09/26 01:54:19;;;;;;;;;2.33;0.33;;;;;15.22;52.58;100920.94;5118731;27;45445;-51
2022/09/26 01:56:47;;;;;;;;;1.00;1.00;;;;;15.28;52.63;100935.47;5118186;27;47142;-47
2022/09/26 01:59:20;;;;;;;;;1.67;1.00;;;;;15.30;52.57;100928.13;5117980;27;45268;-57
2022/09/26 02:01:50;;;;;;;;;1.00;1.00;;;;;15.30;52.80;100928.13;5117329;27;45314;-42
2022/09/26 02:04:29;;;;;;;;;1.00;0.00;;;;;15.29;52.43;100917.53;5118219;27;45468;-49
2022/09/26 02:07:16;;;;;;;;;1.00;1.00;;;;;14.88;52.24;100851.56;5117782;27;45412;-46
2022/09/26 02:09:48;;;;;;;;;0.33;0.33;;;;;15.26;52.51;100908.03;5118105;27;45446;-49
2022/09/26 02:12:22;;;;;;;;;2.00;1.00;;;;;15.23;52.00;100906.50;5118233;27;45345;-61
2022/09/26 02:14:51;;;;;;;;;1.00;1.00;;;;;15.23;52.27;100909.19;5118436;27;45450;-61
2022/09/26 02:17:21;;;;;;;;;3.67;1.00;;;;;15.22;52.38;100904.84;5117934;27;45287;-69
2022/09/26 02:19:59;;;;;;;;;1.67;1.00;;;;;15.21;51.98;100905.00;5117965;27;45332;-69
2022/09/26 02:22:28;;;;;;;;;0.33;0.33;;;;;15.18;51.89;100903.53;5117965;27;45208;-69
2022/09/26 02:24:53;;;;;;;;;1.00;1.00;;;;;15.14;51.83;100896.00;5118462;27;45228;-71
2022/09/26 02:27:19;;;;;;;;;3.00;1.00;;;;;15.10;51.89;100890.16;5117876;27;46108;-64
2022/09/26 02:29:44;;;;;;;;;2.00;1.00;;;;;15.08;52.21;100886.78;5117949;27;45436;-69
2022/09/26 02:32:15;;;;;;;;;0.00;0.00;;;;;15.04;51.76;100880.09;5118291;27;45370;-65
2022/09/26 02:34:43;;;;;;;;;0.67;0.67;;;;;15.07;52.04;100885.13;5118144;27;45451;-52
2022/09/26 02:37:12;;;;;;;;;2.00;1.00;;;;;15.08;51.81;100881.44;5118526;27;46414;-75
2022/09/26 02:39:38;;;;;;;;;0.00;0.00;;;;;15.07;52.18;100879.78;5118165;27;45359;-63
2022/09/26 02:42:16;;;;;;;;;1.00;1.00;;;;;14.98;51.81;100856.69;5118076;27;45404;-46
2022/09/26 02:45:04;;;;;;;;;4.00;0.33;;;;;15.06;51.95;100867.38;5099492;27;45403;-66
2022/09/26 02:47:48;;;;;;;;;0.00;0.00;;;;;15.07;52.24;100854.81;5117689;27;47424;-67
2022/09/26 02:50:31;;;;;;;;;0.33;0.33;;;;;15.09;52.31;100850.16;5117551;27;45388;-53
2022/09/26 02:53:18;;;;;;;;;1.00;1.00;;;;;15.09;52.14;100834.91;5117630;27;45402;-64
2022/09/26 02:56:05;;;;;;;;;0.00;0.00;;;;;15.09;52.64;100826.88;5118120;27;45448;-63
2022/09/26 02:58:43;;;;;;;;;2.00;0.00;;;;;15.09;51.96;100824.19;5121246;27;46366;-70
2022/09/26 03:01:17;;;;;;;;;0.00;0.00;;;;;15.09;52.17;100820.66;5121058;27;45311;-61
2022/09/26 03:04:11;;;;;;;;;3.00;1.00;;;;;15.06;52.46;100797.72;5121153;27;45431;-59
2022/09/26 03:06:43;;;;;;;;;1.67;0.33;;;;;15.07;51.99;100809.28;5121405;27;45532;-55
2022/09/26 03:09:11;;;;;;;;;0.00;0.00;;;;;15.05;52.55;100806.78;5121001;27;46335;-43
2022/09/26 03:11:39;;;;;;;;;1.00;1.00;;;;;15.03;52.79;100803.44;5121091;27;45220;-55
2022/09/26 03:14:06;;;;;;;;;4.33;1.00;;;;;15.02;52.69;100792.91;5120991;27;45367;-46
2022/09/26 03:16:39;;;;;;;;;0.33;0.33;;;;;15.01;52.50;100789.38;5121326;27;45449;-42
2022/09/26 03:19:30;;;;;;;;;0.00;0.00;;;;;15.00;52.14;100782.38;5121047;27;45355;-42
2022/09/26 03:21:56;;;;;;;;;1.00;0.00;;;;;14.98;52.72;100779.00;5120904;27;45542;-49
2022/09/26 03:24:23;;;;;;;;;0.00;0.00;;;;;14.97;52.85;100769.31;5120841;27;45255;-41
2022/09/26 03:26:49;;;;;;;;;1.00;1.00;;;;;14.95;52.77;100765.97;5120964;27;45419;-41
2022/09/26 03:29:15;;;;;;;;;1.00;1.00;;;;;14.97;52.61;100778.19;5120788;27;46249;-48
2022/09/26 03:31:41;;;;;;;;;0.00;0.00;;;;;14.97;52.83;100774.66;5120689;27;45315;-42
2022/09/26 03:34:06;;;;;;;;;1.67;1.00;;;;;14.97;52.83;100774.66;5120750;27;45473;-46
2022/09/26 03:36:32;;;;;;;;;2.00;0.33;;;;;14.92;52.48;100759.13;5120593;27;45393;-42
2022/09/26 03:38:57;;;;;;;;;2.00;0.00;;;;;14.93;52.27;100763.47;5119408;27;46154;-41
2022/09/26 03:41:23;;;;;;;;;0.33;0.33;;;;;14.91;52.87;100760.13;5120496;27;45319;-42
2022/09/26 03:43:48;;;;;;;;;1.00;1.00;;;;;14.86;53.05;100756.31;5120482;27;45326;-41
2022/09/26 03:46:14;;;;;;;;;1.00;0.00;;;;;14.88;52.97;100746.25;5120666;27;45476;-43
2022/09/26 03:48:40;;;;;;;;;0.00;0.00;;;;;14.89;53.06;100732.69;5120182;27;47202;-41
2022/09/26 03:51:08;;;;;;;;;3.00;1.00;;;;;14.79;53.10;100716.00;5120124;27;45235;-41
2022/09/26 03:53:35;;;;;;;;;1.00;1.00;;;;;14.90;53.35;100720.94;5120543;27;45249;-43
2022/09/26 03:56:04;;;;;;;;;2.00;1.00;;;;;14.89;53.18;100721.97;5120370;27;45292;-43
2022/09/26 03:58:29;;;;;;;;;0.67;0.67;;;;;14.92;53.42;100728.84;5119773;27;47487;-43
2022/09/26 04:01:06;;;;;;;;;0.00;0.00;;;;;14.77;53.22;100698.44;5120064;27;45287;-43
2022/09/26 04:03:33;;;;;;;;;0.33;0.33;;;;;14.85;53.27;100709.94;5120216;27;45287;-42
2022/09/26 04:05:59;;;;;;;;;0.00;0.00;;;;;14.90;53.19;100718.28;5120231;27;45294;-46
2022/09/26 04:08:24;;;;;;;;;1.00;0.00;;;;;14.92;53.25;100718.13;5119330;27;46981;-42
2022/09/26 04:10:50;;;;;;;;;2.00;1.00;;;;;14.91;52.98;100713.75;5101350;27;45449;-44
2022/09/26 04:13:15;;;;;;;;;1.00;1.00;;;;;14.89;53.25;100703.22;5119309;27;45703;-41
2022/09/26 04:15:40;;;;;;;;;2.00;2.00;;;;;14.83;52.87;100695.03;5120305;27;45521;-42
2022/09/26 04:18:06;;;;;;;;;1.00;1.00;;;;;14.87;53.34;100696.34;5119807;27;46188;-48
2022/09/26 04:20:31;;;;;;;;;0.00;0.00;;;;;14.88;53.43;100693.53;5119882;27;45272;-42
2022/09/26 04:22:56;;;;;;;;;0.67;0.33;;;;;14.89;53.30;100686.31;5119755;27;45304;-41
2022/09/26 04:25:22;;;;;;;;;1.00;1.00;;;;;14.88;53.45;100684.66;5119885;27;45362;-41
2022/09/26 04:27:47;;;;;;;;;0.00;0.00;;;;;14.89;53.44;100672.94;5119944;27;46141;-42
2022/09/26 04:30:13;;;;;;;;;3.00;1.67;;;;;14.89;53.63;100667.56;5119576;27;45474;-44
2022/09/26 04:32:38;;;;;;;;;1.00;1.00;;;;;14.76;53.27;100641.38;5119812;27;45268;-44
2022/09/26 04:35:04;;;;;;;;;1.00;1.00;;;;;14.85;53.60;100653.69;5120228;27;45177;-42
2022/09/26 04:37:29;;;;;;;;;3.00;1.00;;;;;14.84;52.91;100652.03;5119789;27;45376;-44
2022/09/26 04:39:56;;;;;;;;;2.00;0.00;;;;;14.85;53.19;100648.34;5119935;27;45286;-44
2022/09/26 04:42:23;;;;;;;;;4.00;1.00;;;;;14.85;53.35;100644.84;5120020;27;45365;-42
2022/09/26 04:44:49;;;;;;;;;1.00;1.00;;;;;14.84;53.28;100640.50;5119627;27;45587;-44
2022/09/26 04:47:14;;;;;;;;;1.67;1.00;;;;;14.85;53.23;100636.78;5119323;27;47001;-46
2022/09/26 04:49:40;;;;;;;;;1.00;1.00;;;;;14.85;53.23;100623.41;5119359;27;45416;-43
2022/09/26 04:52:05;;;;;;;;;1.00;1.00;;;;;14.83;53.10;100615.56;5119502;27;45415;-43
2022/09/26 04:54:30;;;;;;;;;0.00;0.00;;;;;14.81;52.97;100606.03;5119639;27;45373;-42
2022/09/26 04:56:59;;;;;;;;;1.00;1.00;;;;;14.81;52.68;100606.03;5119311;27;45339;-48
2022/09/26 04:59:24;;;;;;;;;1.00;1.00;;;;;14.76;53.19;100609.25;5119133;27;45224;-42
2022/09/26 05:01:49;;;;;;;;;1.67;1.67;;;;;14.72;53.52;100614.09;5119236;27;45254;-46
2022/09/26 05:04:14;;;;;;;;;0.67;0.67;;;;;14.77;53.20;100615.44;5119103;27;45594;-53
2022/09/26 05:06:40;;;;;;;;;0.00;0.00;;;;;14.74;52.78;100613.91;5118664;27;45389;-41
2022/09/26 05:09:05;;;;;;;;;2.00;0.33;;;;;14.77;52.94;100605.53;5118354;27;45368;-52
2022/09/26 05:11:31;;;;;;;;;2.00;2.00;;;;;14.76;53.33;100603.06;5119087;27;45363;-41
2022/09/26 05:13:57;;;;;;;;;0.33;0.00;;;;;14.75;53.26;100596.00;5119236;27;45177;-50
2022/09/26 05:16:22;;;;;;;;;0.00;0.00;;;;;14.72;53.16;100597.22;5118844;27;45969;-49
2022/09/26 05:18:50;;;;;;;;;1.00;1.00;;;;;14.69;53.72;100574.28;5118646;27;45478;-42
2022/09/26 05:21:15;;;;;;;;;0.67;0.67;;;;;14.67;53.75;100575.50;5118033;27;45376;-52
2022/09/26 05:26:44;;;;;;;;;2.67;1.00;;;;;14.64;53.65;100552.59;5118643;27;45896;-66
2022/09/26 05:29:10;;;;;;;;;1.00;1.00;;;;;14.56;53.95;100538.41;5118692;27;45488;-42
2022/09/26 05:31:36;;;;;;;;;5.67;4.00;;;;;14.61;54.00;100550.25;5100347;27;45420;-51
2022/09/26 05:34:09;;;;;;;;;1.00;1.00;;;;;14.60;54.41;100551.28;5118983;27;45482;-47
2022/09/26 05:36:35;;;;;;;;;0.00;0.00;;;;;14.55;54.36;100542.94;5118546;27;46261;-43
2022/09/26 05:39:01;;;;;;;;;3.00;1.33;;;;;14.51;54.07;100546.16;5118477;27;45368;-42
2022/09/26 05:41:35;;;;;;;;;0.67;0.67;;;;;14.47;54.21;100546.47;5118200;27;45527;-54
2022/09/26 05:44:01;;;;;;;;;1.67;1.00;;;;;14.45;54.42;100543.16;5118695;27;45452;-51
2022/09/26 05:46:27;;;;;;;;;1.00;1.00;;;;;14.41;54.50;100535.63;5117320;27;45342;-58
2022/09/26 05:48:54;;;;;;;;;0.00;0.00;;;;;14.37;54.22;100527.13;5118377;27;45467;-44
2022/09/26 05:51:20;;;;;;;;;1.00;1.00;;;;;14.45;54.80;100547.63;5118536;27;45370;-51
2022/09/26 05:53:46;;;;;;;;;0.00;0.00;;;;;14.46;54.28;100538.63;5118821;27;45670;-50
2022/09/26 05:56:14;;;;;;;;;0.67;0.67;;;;;14.39;54.85;100529.63;5118387;27;47039;-47
2022/09/26 05:58:40;;;;;;;;;2.33;2.00;;;;;14.48;54.69;100541.94;5118466;27;45508;-65
2022/09/26 06:01:09;;;;;;;;;2.00;0.00;;;;;14.46;54.94;100541.31;5117238;27;45354;-44
2022/09/26 06:03:35;;;;;;;;;1.00;1.00;;;;;14.47;55.27;100535.75;5118362;27;45466;-56
2022/09/26 06:06:02;;;;;;;;;2.67;1.33;;;;;14.52;54.63;100529.91;5116934;27;45546;-47
2022/09/26 06:08:27;;;;;;;;;1.00;1.00;;;;;14.51;54.80;100530.09;5099482;27;45368;-42
2022/09/26 06:10:58;;;;;;;;;3.00;3.00;;;;;14.57;54.71;100530.19;5117529;27;45545;-53
2022/09/26 06:13:24;;;;;;;;;5.00;4.33;;;;;14.58;54.88;100539.06;5118571;27;45405;-43
2022/09/26 06:15:49;;;;;;;;;1.00;1.00;;;;;14.58;54.68;100536.38;5117991;27;46963;-54
2022/09/26 06:18:14;;;;;;;;;3.67;1.67;;;;;14.58;55.23;100541.75;5118198;27;45310;-50
2022/09/26 06:20:40;;;;;;;;;2.00;2.00;;;;;14.54;54.94;100527.03;5117052;27;45377;-43
2022/09/26 06:23:05;;;;;;;;;2.00;1.33;;;;;14.60;54.88;100532.53;5118386;27;45553;-42
2022/09/26 06:25:31;;;;;;;;;0.00;0.00;;;;;14.59;54.82;100530.88;5118391;27;45150;-52
2022/09/26 06:27:57;;;;;;;;;1.00;1.00;;;;;14.62;54.79;100527.00;5116943;27;45408;-52
2022/09/26 06:30:23;;;;;;;;;2.00;0.00;;;;;14.50;54.89;100507.84;5118177;27;45336;-52
2022/09/26 06:32:52;;;;;;;;;1.00;1.00;;;;;14.60;54.90;100518.31;5121109;27;45402;-57
2022/09/26 06:35:21;;;;;;;;;3.00;1.00;;;;;14.58;54.63;100518.50;5121525;27;45345;-44
2022/09/26 06:37:47;;;;;;;;;1.00;1.00;;;;;14.60;55.37;100515.63;5121687;27;45382;-61
2022/09/26 06:40:13;;;;;;;;;1.33;1.00;;;;;14.51;55.02;100497.97;5121676;27;45969;-64
2022/09/26 06:42:39;;;;;;;;;1.00;1.00;;;;;14.61;55.08;100507.41;5121797;27;45336;-46
2022/09/26 06:45:09;;;;;;;;;1.00;1.00;;;;;14.67;54.79;100503.22;5121160;27;46114;-60
2022/09/26 06:47:34;;;;;;;;;2.33;1.67;;;;;14.71;55.24;100499.16;5121246;27;45318;-48
2022/09/26 06:50:01;;;;;;;;;3.00;2.67;;;;;14.75;54.76;100508.50;5121505;27;45164;-46
2022/09/26 06:52:28;;;;;;;;;2.00;2.00;;;;;14.79;54.62;100504.47;5121569;27;45346;-60
2022/09/26 06:54:54;;;;;;;;;2.00;2.00;;;;;14.78;54.43;100489.38;5120835;27;46511;-42
2022/09/26 06:57:20;;;;;;;;;2.00;2.00;;;;;14.79;54.28;100479.50;5121166;27;45400;-54
2022/09/26 06:59:45;;;;;;;;;1.33;1.00;;;;;14.87;54.30;100476.75;5121320;27;45429;-47
2022/09/26 07:02:11;;;;;;;;;1.00;1.00;;;;;14.91;53.79;100483.41;5121338;27;45456;-57
2022/09/26 07:04:36;;;;;;;;;1.00;1.00;;;;;14.53;54.23;100419.16;5120902;27;45577;-42
2022/09/26 07:07:02;;;;;;;;;1.33;1.00;;;;;14.81;54.27;100453.38;5119890;27;45356;-46
2022/09/26 07:09:27;;;;;;;;;1.00;1.00;;;;;15.00;54.41;100477.00;5121063;27;45444;-62
2022/09/26 07:11:52;;;;;;;;;1.00;1.00;;;;;15.03;54.03;100457.84;5121433;27;45517;-70
2022/09/26 07:14:18;;;;;;;;;1.00;1.00;;;;;15.12;53.68;100463.97;5121205;27;45911;-42
2022/09/26 07:16:44;;;;;;;;;2.00;0.67;;;;;15.20;53.35;100461.19;5121001;27;45370;-51
2022/09/26 07:19:11;;;;;;;;;1.00;0.00;;;;;15.28;53.11;100450.38;5120896;27;45268;-59
2022/09/26 07:21:36;;;;;;;;;2.00;2.00;;;;;15.36;53.28;100449.47;5121161;27;45346;-48
2022/09/26 07:24:02;;;;;;;;;2.67;2.67;;;;;15.41;52.75;100431.81;5120325;27;47256;-46
2022/09/26 07:26:27;;;;;;;;;2.67;1.00;;;;;15.40;52.95;100432.00;5120782;27;45424;-45
2022/09/26 07:28:53;;;;;;;;;1.00;1.00;;;;;15.42;52.67;100432.63;5121057;27;45215;-56
2022/09/26 07:31:19;;;;;;;;;4.33;1.00;;;;;15.40;52.55;100418.59;5120959;27;45407;-61
2022/09/26 07:33:44;;;;;;;;;3.33;1.33;;;;;15.40;52.57;100399.84;5120747;27;46991;-55
2022/09/26 07:36:09;;;;;;;;;0.67;0.67;;;;;15.48;52.36;100416.66;5120893;27;45310;-61
2022/09/26 07:38:35;;;;;;;;;3.00;3.00;;;;;15.51;52.39;100412.78;5120617;27;45585;-59
2022/09/26 07:41:01;;;;;;;;;3.00;3.00;;;;;15.53;52.52;100397.31;5120431;27;45389;-55
2022/09/26 07:43:26;;;;;;;;;1.67;1.67;;;;;15.57;52.12;100387.06;5119332;27;46035;-64
2022/09/26 07:51:21;;;;;;;;;1.00;0.00;;;;;15.63;52.16;100383.63;5120717;27;45369;-62
2022/09/26 07:53:46;;;;;;;;;0.00;0.00;;;;;15.68;52.27;100378.56;5120123;27;45939;-50
2022/09/26 07:56:12;;;;;;;;;1.67;1.67;;;;;15.64;51.78;100387.97;5120312;27;45318;-58
2022/09/26 07:58:40;;;;;;;;;0.00;0.00;;;;;15.62;51.91;100380.09;5120694;27;45252;-49
2022/09/26 08:01:13;;;;;;;;;0.33;0.33;;;;;15.59;52.07;100369.78;5119752;27;45422;-69
2022/09/26 08:03:44;;;;;;;;;0.00;0.00;;;;;15.57;51.98;100371.81;5120393;27;46421;-42
2022/09/26 08:06:11;;;;;;;;;1.00;1.00;;;;;15.57;52.03;100382.53;5119250;27;45359;-76
2022/09/26 08:08:37;;;;;;;;;2.00;1.00;;;;;15.26;51.93;100320.31;5120045;27;45462;-55
2022/09/26 08:11:02;;;;;;;;;1.00;1.00;;;;;15.67;51.76;100377.75;5120354;27;45441;-60
2022/09/26 08:13:30;;;;;;;;;0.00;0.00;;;;;15.71;51.70;100379.00;5121926;27;46983;-44
2022/09/26 08:16:02;;;;;;;;;1.00;1.00;;;;;15.69;51.50;100374.88;5122840;27;45449;-46
2022/09/26 08:18:28;;;;;;;;;0.67;0.67;;;;;15.64;51.80;100369.22;5123120;27;45493;-43
2022/09/26 08:20:53;;;;;;;;;2.00;1.00;;;;;15.68;51.86;100367.84;5121249;27;45428;-53
2022/09/26 08:23:19;;;;;;;;;1.33;1.00;;;;;15.68;51.53;100366.00;5120285;27;48844;-51
2022/09/26 08:25:44;;;;;;;;;1.00;1.00;;;;;15.68;51.89;100360.63;5120731;27;45334;-42
2022/09/26 08:28:13;;;;;;;;;4.33;1.00;;;;;15.90;51.38;100350.75;5120163;27;45473;-61
2022/09/26 08:30:39;;;;;;;;;2.00;2.00;;;;;16.29;50.64;100359.34;5120107;27;45390;-51
2022/09/26 08:33:07;;;;;;;;;3.33;0.00;;;;;16.74;50.03;100347.34;5119680;27;45438;-65
2022/09/26 08:35:37;;;;;;;;;1.00;1.00;;;;;17.05;48.93;100324.59;5119780;27;45390;-67
2022/09/26 08:38:05;;;;;;;;;1.00;1.00;;;;;17.59;47.90;100346.09;5119913;27;45507;-52
2022/09/26 08:40:44;;;;;;;;;1.33;1.33;;;;;17.93;47.53;100325.53;5119723;27;45499;-48
2022/09/26 08:43:28;;;;;;;;;1.00;1.00;;;;;18.47;46.75;100321.00;5119341;27;46331;-58
2022/09/26 08:49:13;;;;;;;;;3.00;2.00;;;;;18.59;45.76;100311.25;5119597;27;45320;-51
2022/09/26 08:51:48;;;;;;;;;4.00;2.00;;;;;18.68;45.54;100309.97;5102685;27;45629;-56
2022/09/26 08:54:36;;;;;;;;;2.33;1.33;;;;;18.83;45.42;100307.88;5106767;27;45529;-55
2022/09/26 08:57:12;;;;;;;;;0.67;0.67;;;;;18.86;44.50;100320.94;5109145;27;45388;-70
2022/09/26 08:59:48;;;;;;;;;3.33;2.00;;;;;18.76;45.45;100312.47;5107370;27;45375;-60
2022/09/26 09:02:33;;;;;;;;;1.67;1.67;;;;;18.63;45.09;100297.13;5108344;27;45425;-54
2022/09/26 09:05:11;;;;;;;;;2.00;1.00;;;;;18.51;45.21;100300.69;5089933;27;46157;-50
2022/09/26 09:07:36;;;;;;;;;0.33;0.33;;;;;18.47;45.10;100289.50;5107945;27;45494;-71
2022/09/26 09:10:07;;;;;;;;;1.33;1.33;;;;;18.56;44.99;100292.78;5107520;27;45435;-51
2022/09/26 09:12:51;;;;;;;;;3.00;2.00;;;;;18.69;44.75;100277.44;5105517;27;45580;-66
2022/09/26 09:15:49;;;;;;;;;2.00;0.75;;;;;18.91;44.56;100277.19;5107686;27;46244;-60
2022/09/26 09:18:29;;;;;;;;;1.75;1.00;;;;;19.29;44.05;100271.00;5092894;27;45361;-61
2022/09/26 09:21:04;;;;;;;;;4.75;1.25;;;;;19.58;43.26;100270.41;5107427;27;45425;-69
2022/09/26 09:23:52;;;;;;;;;1.33;1.00;;;;;19.90;42.07;100238.88;5112817;27;45463;-71
2022/09/26 09:26:44;;;;;;;;;1.00;1.00;;;;;20.18;41.44;100240.28;5099179;27;47697;-61
2022/09/26 09:29:27;;;;;;;;;1.00;1.00;;;;;20.42;41.57;100244.03;5116189;27;45531;-46
2022/09/26 09:31:55;;;;;;;;;0.00;0.00;;;;;20.48;40.29;100234.19;5118472;27;45352;-52
2022/09/26 09:34:28;;;;;;;;;1.25;1.25;;;;;21.65;39.61;100216.69;5118600;27;45322;-59
2022/09/26 09:37:01;;;;;;;;;2.50;1.00;;;;;22.13;38.07;100212.19;5117525;27;45400;-60
2022/09/26 09:39:32;;;;;;;;;1.00;1.00;;;;;21.97;39.53;100213.69;5118263;27;46048;-51
2022/09/26 09:42:11;;;;;;;;;1.00;1.00;;;;;21.24;39.04;100200.41;5117903;27;45380;-67
2022/09/26 09:44:51;;;;;;;;;1.00;1.00;;;;;20.58;39.85;100210.22;5118394;27;45283;-59
2022/09/26 09:47:18;;;;;;;;;3.00;1.00;;;;;20.09;40.82;100191.16;5118171;27;45394;-48
2022/09/26 09:49:47;;;;;;;;;2.00;1.00;;;;;19.56;41.48;100194.28;5117304;27;45354;-60
2022/09/26 09:52:30;;;;;;;;;1.00;1.00;;;;;18.90;42.02;100147.00;5117767;27;45350;-43
2022/09/26 09:55:24;;;;;;;;;3.50;1.50;;;;;18.87;43.10;100190.53;5116978;27;45252;-61
2022/09/26 09:58:10;;;;;;;;;1.00;1.00;;;;;18.63;43.48;100197.47;5117706;27;46247;-55
2022/09/26 10:00:40;;;;;;;;;3.75;1.75;;;;;18.40;43.52;100187.16;5117963;27;45266;-65
2022/09/26 10:03:21;;;;;;;;;1.00;1.00;;;;;18.20;43.67;100175.59;5118060;27;45583;-54
2022/09/26 10:05:52;;;;;;;;;3.50;1.50;;;;;18.10;43.87;100167.97;5118114;27;45329;-54
2022/09/26 10:08:23;;;;;;;;;1.50;1.00;;;;;18.01;44.15;100176.47;5117208;27;46238;-51
2022/09/26 10:11:11;;;;;;;;;3.33;1.00;;;;;17.84;44.31;100168.84;5117420;27;45381;-46
2022/09/26 10:13:41;;;;;;;;;1.00;1.00;;;;;17.67;44.63;100154.94;5117950;27;45394;-46
2022/09/26 10:16:09;;;;;;;;;2.00;0.00;;;;;17.54;44.79;100163.00;5118180;27;45311;-50
2022/09/26 10:19:04;;;;;;;;;1.00;0.33;;;;;17.44;45.41;100146.44;5117663;27;45430;-58
2022/09/26 10:21:34;;;;;;;;;3.00;0.00;;;;;17.22;45.54;100124.31;5117770;27;45476;-54
2022/09/26 10:24:03;;;;;;;;;3.00;1.67;;;;;17.27;45.91;100147.88;5117640;27;45341;-45
2022/09/26 10:26:34;;;;;;;;;1.33;1.33;;;;;17.23;45.98;100147.47;5117826;27;45393;-52
2022/09/26 10:29:05;;;;;;;;;2.67;1.00;;;;;17.28;45.76;100147.69;5117481;27;45402;-55
2022/09/26 10:31:37;;;;;;;;;1.33;1.33;;;;;17.18;46.34;100120.38;5117417;27;45325;-69
2022/09/26 10:34:22;;;;;;;;;1.67;1.00;;;;;17.21;46.50;100103.84;5117498;27;45362;-42
2022/09/26 10:36:47;;;;;;;;;2.00;1.00;;;;;17.27;46.11;100111.06;5117966;27;45330;-52
2022/09/26 10:42:05;;;;;;;;;1.00;1.00;;;;;17.29;46.31;100082.13;5117045;27;45346;-62
2022/09/26 10:44:38;;;;;;;;;3.00;2.00;;;;;17.34;46.61;100086.88;5117295;27;45343;-53
2022/09/26 10:47:09;;;;;;;;;2.33;1.00;;;;;17.36;47.96;100090.19;5117772;27;45703;-55
2022/09/26 10:49:58;;;;;;;;;1.00;1.00;;;;;17.32;48.09;100075.50;5117203;27;46457;-42
2022/09/26 10:52:46;;;;;;;;;1.00;1.00;;;;;17.45;47.55;100083.59;5116605;27;45416;-54
2022/09/26 10:55:46;;;;;;;;;5.00;2.00;;;;;17.25;48.01;100077.38;5117125;27;45223;-60
2022/09/26 10:58:26;;;;;;;;;2.00;0.00;;;;;17.17;48.01;100062.28;5113228;27;45422;-53
2022/09/26 11:00:53;;;;;;;;;1.00;1.00;;;;;17.12;48.71;100067.47;5117110;27;47209;-49
2022/09/26 11:03:40;;;;;;;;;1.00;1.00;;;;;17.00;48.41;100058.34;5117111;27;45332;-48
2022/09/26 11:06:24;;;;;;;;;1.00;1.00;;;;;16.93;48.00;100055.63;5116829;27;45533;-54
2022/09/26 11:08:56;;;;;;;;;2.67;2.00;;;;;16.87;48.98;100068.03;5117011;27;45477;-55
2022/09/26 11:11:22;;;;;;;;;0.00;0.00;;;;;16.90;50.06;100058.75;5116655;27;45518;-54
2022/09/26 11:14:02;;;;;;;;;1.00;1.00;;;;;16.79;50.24;100043.22;5117027;27;45444;-59
2022/09/26 11:16:37;;;;;;;;;3.00;1.67;;;;;16.76;50.43;100049.81;5116946;27;45377;-70
2022/09/26 11:19:05;;;;;;;;;2.67;2.00;;;;;16.81;50.85;100036.63;5118404;27;45525;-56
2022/09/26 11:21:42;;;;;;;;;2.00;1.00;;;;;16.83;50.78;100034.56;5120249;27;46597;-65
2022/09/26 11:24:36;;;;;;;;;3.00;1.00;;;;;16.73;51.80;100050.25;5120450;27;45417;-67
2022/09/26 11:27:30;;;;;;;;;2.00;2.00;;;;;16.66;52.29;100044.81;5107685;27;45385;-66
2022/09/26 11:30:08;;;;;;;;;0.67;0.33;;;;;16.61;52.93;100030.38;5120473;27;45749;-42
2022/09/26 11:32:41;;;;;;;;;1.00;1.00;;;;;16.53;53.27;100034.06;5120257;27;47129;-45
2022/09/26 11:35:45;;;;;;;;;2.33;2.00;;;;;16.42;54.35;100040.00;5120228;27;45449;-47
2022/09/26 11:38:26;;;;;;;;;2.67;1.67;;;;;16.25;53.84;100028.81;5016630;28;45363;-62
2022/09/26 11:41:35;;;;;;;;;1.00;1.00;;;;;16.12;55.95;100026.06;5016389;28;46033;-66
2022/09/26 11:44:24;;;;;;;;;2.67;1.00;;;;;15.97;56.41;100012.81;5009938;28;46067;-43
2022/09/26 11:46:52;;;;;;;;;2.00;1.00;;;;;15.85;58.45;100011.72;4996704;28;45477;-42
2022/09/26 11:49:50;;;;;;;;;3.33;2.67;;;;;15.70;56.43;99996.56;4997453;28;45429;-62
2022/09/26 11:52:35;;;;;;;;;2.00;2.00;;;;;15.56;58.76;99996.69;5013014;28;45522;-64
2022/09/26 11:55:07;;;;;;;;;3.00;1.00;;;;;15.44;60.79;100007.13;5016455;28;45458;-43
2022/09/26 11:57:32;;;;;;;;;3.33;2.00;;;;;15.28;61.63;99989.47;5013119;28;45447;-42
2022/09/26 12:00:07;;;;;;;;;3.00;1.67;;;;;15.12;61.42;99973.69;5016858;28;45832;-57